Time;durP1;ratioP1;P1;durP2;ratioP2;P2;SDS_P1;SDS_P2;PMS_P1;PMS_P2;Temp;Humidity;BMP_temperature;BMP_pressure;BME280_temperature;BME280_humidity;BME280_pressure;Samples;Min_cycle;Max_cycle;Signal;HPM_P1;HPM_P2
2023/12/28 00:01:43;;;;;;;12.25;4.05;;;;;;;8.07;61.35;100899.72;5050661;28;20041;-37
2023/12/28 00:04:08;;;;;;;12.27;4.78;;;;;;;8.00;61.30;100896.53;5052901;28;20033;-37
2023/12/28 00:06:34;;;;;;;12.73;5.30;;;;;;;8.06;61.37;100898.84;5047100;28;20032;-37
2023/12/28 00:09:00;;;;;;;10.93;4.65;;;;;;;8.07;61.14;100886.63;5027820;28;20036;-37
2023/12/28 00:11:26;;;;;;;7.78;3.15;;;;;;;8.03;61.09;100893.75;5049010;28;20035;-37
2023/12/28 00:13:51;;;;;;;13.27;5.15;;;;;;;8.03;61.12;100892.91;5050546;28;20036;-36
2023/12/28 00:16:16;;;;;;;11.50;4.68;;;;;;;7.88;61.30;100892.66;5050690;28;20037;-37
2023/12/28 00:18:42;;;;;;;10.88;4.63;;;;;;;7.89;61.52;100883.03;5048412;28;20024;-37
2023/12/28 00:21:07;;;;;;;20.20;5.78;;;;;;;7.77;61.81;100872.19;5049993;28;20499;-37
2023/12/28 00:23:33;;;;;;;15.43;5.22;;;;;;;7.81;61.99;100872.88;5048780;28;20052;-37
2023/12/28 00:25:58;;;;;;;16.00;5.97;;;;;;;7.74;61.91;100855.75;5049506;28;20029;-37
2023/12/28 00:28:23;;;;;;;11.43;4.20;;;;;;;7.89;61.71;100841.97;5049942;28;20467;-37
2023/12/28 00:30:49;;;;;;;10.65;4.32;;;;;;;8.00;61.48;100838.00;5047088;28;20029;-37
2023/12/28 00:33:14;;;;;;;9.93;4.93;;;;;;;7.98;61.90;100821.50;5049812;28;20032;-37
2023/12/28 00:35:39;;;;;;;11.63;4.63;;;;;;;8.06;61.41;100807.13;5049525;28;20063;-37
2023/12/28 00:38:05;;;;;;;11.93;4.10;;;;;;;8.17;61.43;100806.63;5044218;28;20487;-37
2023/12/28 00:40:30;;;;;;;10.15;4.35;;;;;;;8.15;61.39;100811.09;5048641;28;20025;-37
2023/12/28 00:42:56;;;;;;;9.20;4.78;;;;;;;8.15;61.37;100798.00;5051528;28;20025;-37
2023/12/28 00:45:21;;;;;;;10.18;4.80;;;;;;;8.22;61.32;100788.94;5049641;28;20415;-36
2023/12/28 00:47:46;;;;;;;11.07;4.05;;;;;;;8.19;61.16;100789.06;5049966;28;20085;-37
2023/12/28 00:50:12;;;;;;;11.25;3.83;;;;;;;8.12;61.23;100774.53;5051306;28;20033;-37
2023/12/28 00:52:38;;;;;;;8.10;4.00;;;;;;;8.28;61.26;100779.06;5052394;28;20040;-37
2023/12/28 00:55:04;;;;;;;11.73;3.60;;;;;;;8.19;61.30;100775.09;5049372;28;20033;-37
2023/12/28 00:57:30;;;;;;;10.13;4.55;;;;;;;8.17;61.18;100777.81;5049567;28;20395;-36
2023/12/28 00:59:55;;;;;;;11.63;3.72;;;;;;;8.15;61.45;100766.53;5047341;28;20086;-37
2023/12/28 01:02:21;;;;;;;11.68;4.50;;;;;;;8.16;61.12;100755.13;5050467;28;20033;-37
2023/12/28 01:04:46;;;;;;;16.48;6.43;;;;;;;8.07;61.28;100752.97;5049373;28;20132;-36
2023/12/28 01:07:11;;;;;;;14.10;6.20;;;;;;;8.19;61.22;100759.38;5047281;28;20033;-37
2023/12/28 01:09:37;;;;;;;11.63;4.60;;;;;;;8.16;60.94;100765.63;5034119;28;20132;-37
2023/12/28 01:12:03;;;;;;;9.02;3.97;;;;;;;8.13;60.87;100768.38;5044474;28;20103;-37
2023/12/28 01:14:28;;;;;;;8.30;3.17;;;;;;;8.06;60.99;100759.13;5049579;28;20415;-37
2023/12/28 01:16:53;;;;;;;8.95;3.60;;;;;;;8.03;61.08;100761.88;5045867;28;20155;-37
2023/12/28 01:19:19;;;;;;;8.88;4.22;;;;;;;7.97;61.13;100749.03;5043369;28;20053;-37
2023/12/28 01:21:44;;;;;;;11.73;4.68;;;;;;;8.04;61.12;100745.22;5047795;28;20080;-36
2023/12/28 01:24:10;;;;;;;9.63;3.97;;;;;;;8.03;61.51;100748.78;5048347;28;20037;-37
2023/12/28 01:26:36;;;;;;;12.20;4.50;;;;;;;8.08;61.12;100741.56;5046306;28;20055;-37
2023/12/28 01:29:02;;;;;;;10.63;4.65;;;;;;;8.14;61.18;100746.50;5045019;28;20025;-37
2023/12/28 01:31:28;;;;;;;12.45;4.15;;;;;;;7.94;61.39;100756.13;5043793;28;20074;-37
2023/12/28 01:33:53;;;;;;;8.85;3.72;;;;;;;7.91;61.20;100761.53;5051079;28;20025;-37
2023/12/28 01:36:20;;;;;;;10.68;3.70;;;;;;;8.13;60.98;100773.63;5050208;28;20029;-37
2023/12/28 01:38:46;;;;;;;8.23;3.60;;;;;;;7.87;61.21;100769.59;5043393;28;20083;-37
2023/12/28 01:41:12;;;;;;;7.15;3.38;;;;;;;7.92;61.35;100773.72;5050065;28;20013;-37
2023/12/28 01:43:38;;;;;;;9.00;4.07;;;;;;;7.96;61.24;100784.03;5046632;28;20035;-37
2023/12/28 01:46:05;;;;;;;8.52;3.65;;;;;;;7.93;61.47;100785.91;5044126;28;20033;-37
2023/12/28 01:48:31;;;;;;;13.00;3.78;;;;;;;7.90;61.37;100778.19;5048141;28;20048;-36
2023/12/28 01:50:58;;;;;;;13.68;3.58;;;;;;;7.76;61.25;100773.56;5042433;28;20052;-37
2023/12/28 01:53:23;;;;;;;9.48;4.15;;;;;;;7.69;61.79;100766.91;5045287;28;20045;-37
2023/12/28 01:55:48;;;;;;;12.85;4.32;;;;;;;7.82;61.66;100750.63;5049845;28;20048;-37
2023/12/28 01:58:14;;;;;;;8.90;3.42;;;;;;;7.86;61.52;100747.78;5053206;28;20119;-37
2023/12/28 02:00:42;;;;;;;13.43;3.83;;;;;;;8.00;61.30;100743.66;5050677;28;20095;-36
2023/12/28 02:03:08;;;;;;;7.63;2.90;;;;;;;7.80;61.13;100737.56;5046455;28;20032;-37
2023/12/28 02:05:34;;;;;;;9.82;2.80;;;;;;;7.91;61.24;100737.94;5044438;28;20659;-37
2023/12/28 02:08:00;;;;;;;7.72;3.50;;;;;;;7.84;60.94;100728.66;5054313;28;20036;-37
2023/12/28 02:10:26;;;;;;;12.25;3.13;;;;;;;8.09;60.82;100719.66;5047122;28;20033;-37
2023/12/28 02:12:53;;;;;;;8.25;3.38;;;;;;;8.00;61.03;100713.09;5046608;28;20029;-37
2023/12/28 02:15:19;;;;;;;8.18;3.63;;;;;;;8.01;60.79;100692.97;5046252;28;20430;-37
2023/12/28 02:17:52;;;;;;;11.18;3.42;;;;;;;8.15;60.40;100682.66;5049397;28;20032;-37
2023/12/28 02:20:20;;;;;;;10.85;3.83;;;;;;;8.27;60.46;100673.34;5043014;28;20383;-37
2023/12/28 02:22:46;;;;;;;7.13;3.15;;;;;;;8.26;60.34;100661.19;5046873;28;20393;-37
2023/12/28 02:25:12;;;;;;;11.30;3.42;;;;;;;8.32;60.46;100660.03;5049265;28;20589;-37
2023/12/28 02:27:41;;;;;;;10.00;3.42;;;;;;;8.34;60.13;100671.28;5046447;28;20020;-37
2023/12/28 02:30:08;;;;;;;9.57;3.40;;;;;;;8.47;60.31;100650.56;5041292;28;20056;-37
2023/12/28 02:32:52;;;;;;;6.68;3.50;;;;;;;8.44;59.57;100664.66;5049162;28;20087;-37
2023/12/28 02:35:29;;;;;;;9.63;2.80;;;;;;;8.34;59.50;100708.81;5048448;28;20028;-37
2023/12/28 02:37:58;;;;;;;8.00;3.08;;;;;;;8.19;59.58;100731.41;5045155;28;20032;-37
2023/12/28 02:40:24;;;;;;;10.68;3.35;;;;;;;8.20;60.28;100730.47;5047418;28;20032;-37
2023/12/28 02:42:50;;;;;;;8.32;3.25;;;;;;;8.04;60.01;100740.81;5049321;28;20451;-39
2023/12/28 02:45:15;;;;;;;7.95;3.78;;;;;;;8.22;60.22;100749.63;5051929;28;20111;-37
2023/12/28 02:47:40;;;;;;;7.60;3.40;;;;;;;8.14;60.02;100741.25;5042924;28;20033;-37
2023/12/28 02:50:07;;;;;;;12.82;3.38;;;;;;;8.05;60.15;100731.22;5047360;28;20037;-36
2023/12/28 02:52:32;;;;;;;7.32;2.55;;;;;;;8.24;59.78;100721.53;5044137;28;20040;-36
2023/12/28 02:54:57;;;;;;;7.93;3.03;;;;;;;8.22;60.01;100723.41;5043374;28;20029;-36
2023/12/28 02:57:23;;;;;;;7.72;2.95;;;;;;;8.31;60.08;100716.00;5045421;28;20419;-37
2023/12/28 02:59:48;;;;;;;10.38;3.35;;;;;;;8.43;59.66;100710.16;5048669;28;20045;-37
2023/12/28 03:02:14;;;;;;;8.20;2.90;;;;;;;8.42;59.73;100712.84;5050495;28;20021;-37
2023/12/28 03:04:39;;;;;;;6.95;2.83;;;;;;;8.44;59.02;100722.34;5047437;28;20033;-37
2023/12/28 03:07:06;;;;;;;7.63;3.95;;;;;;;8.48;59.11;100721.28;5052097;28;20110;-37
2023/12/28 03:09:31;;;;;;;9.93;3.50;;;;;;;8.63;59.03;100717.06;5044859;28;20021;-37
2023/12/28 03:11:56;;;;;;;7.35;3.53;;;;;;;8.53;58.31;100732.41;5041196;28;20044;-37
2023/12/28 03:14:22;;;;;;;9.93;3.67;;;;;;;8.64;59.18;100717.91;5044045;28;20067;-37
2023/12/28 03:16:47;;;;;;;9.98;3.25;;;;;;;8.56;58.37;100699.94;5043549;28;20041;-37
2023/12/28 03:19:13;;;;;;;6.45;3.00;;;;;;;8.65;58.91;100706.50;5043907;28;20021;-37
2023/12/28 03:21:40;;;;;;;6.60;3.13;;;;;;;8.68;58.79;100696.69;5044186;28;20860;-37
2023/12/28 03:24:05;;;;;;;7.10;2.70;;;;;;;8.70;58.62;100696.59;5045473;28;20032;-37
2023/12/28 03:26:31;;;;;;;6.85;3.50;;;;;;;8.77;58.26;100703.25;5046796;28;20372;-37
2023/12/28 03:28:56;;;;;;;9.02;2.95;;;;;;;8.75;58.28;100701.66;5044206;28;20068;-37
2023/12/28 03:31:22;;;;;;;6.03;2.70;;;;;;;8.80;58.08;100695.22;5044640;28;20495;-37
2023/12/28 03:33:47;;;;;;;4.43;2.05;;;;;;;8.75;58.33;100691.16;5042969;28;20028;-37
2023/12/28 03:36:19;;;;;;;6.57;2.75;;;;;;;8.88;58.28;100684.34;5048168;28;20502;-37
2023/12/28 03:38:45;;;;;;;5.63;2.50;;;;;;;8.95;58.23;100688.31;5044595;28;21101;-37
2023/12/28 03:41:20;;;;;;;7.50;2.30;;;;;;;8.90;57.28;100700.00;5048591;28;20033;-37
2023/12/28 03:43:46;;;;;;;6.32;2.45;;;;;;;8.72;57.62;100714.91;5045371;28;20024;-36
2023/12/28 03:46:12;;;;;;;2.78;1.80;;;;;;;8.90;58.18;100703.47;5044839;28;20144;-37
2023/12/28 03:48:37;;;;;;;5.80;2.35;;;;;;;8.89;58.64;100706.16;5044218;28;20033;-37
2023/12/28 03:51:04;;;;;;;6.82;2.47;;;;;;;9.00;58.53;100709.06;5042182;28;20064;-37
2023/12/28 03:53:31;;;;;;;3.88;1.90;;;;;;;8.90;58.39;100706.09;5051043;28;20068;-36
2023/12/28 03:55:59;;;;;;;4.32;1.60;;;;;;;8.81;58.31;100710.06;5043613;28;20533;-37
2023/12/28 03:58:25;;;;;;;3.72;1.95;;;;;;;8.82;58.63;100698.63;5045544;28;20033;-37
2023/12/28 04:00:50;;;;;;;4.50;1.90;;;;;;;8.81;58.70;100703.94;5046452;28;20536;-37
2023/12/28 04:03:16;;;;;;;3.38;1.83;;;;;;;8.95;58.25;100708.50;5046635;28;20111;-37
2023/12/28 04:05:43;;;;;;;9.25;1.98;;;;;;;8.89;58.05;100696.53;5040681;28;20035;-37
2023/12/28 04:08:09;;;;;;;5.32;1.98;;;;;;;8.99;58.52;100686.41;5042391;28;20038;-37
2023/12/28 04:10:36;;;;;;;3.53;1.70;;;;;;;8.92;58.52;100682.41;5046904;28;20066;-37
2023/12/28 04:13:02;;;;;;;6.22;2.00;;;;;;;9.03;58.15;100697.59;5046908;28;20683;-37
2023/12/28 04:15:28;;;;;;;3.80;1.92;;;;;;;9.14;58.28;100703.13;5044903;28;20447;-37
2023/12/28 04:17:54;;;;;;;4.32;2.00;;;;;;;9.12;58.24;100694.47;5044492;28;20067;-37
2023/12/28 04:20:19;;;;;;;2.30;1.33;;;;;;;9.24;58.34;100699.06;5042730;28;20479;-37
2023/12/28 04:22:45;;;;;;;10.35;3.10;;;;;;;9.21;57.87;100693.16;5046126;28;20038;-37
2023/12/28 04:25:11;;;;;;;4.35;1.83;;;;;;;9.30;58.01;100705.81;5044318;28;20495;-37
2023/12/28 04:27:37;;;;;;;1.77;1.40;;;;;;;9.14;58.46;100690.00;5044217;28;20032;-37
2023/12/28 04:30:05;;;;;;;3.30;1.60;;;;;;;9.15;57.87;100708.28;5043914;28;20033;-37
2023/12/28 04:32:30;;;;;;;4.47;1.70;;;;;;;9.28;58.11;100710.28;5047029;28;20032;-37
2023/12/28 04:34:56;;;;;;;4.47;1.88;;;;;;;9.31;58.12;100707.47;5045440;28;20029;-38
2023/12/28 04:37:21;;;;;;;3.25;1.58;;;;;;;9.38;58.38;100697.50;5049575;28;20053;-37
2023/12/28 04:39:47;;;;;;;3.13;1.70;;;;;;;9.23;58.44;100693.91;5044341;28;20029;-37
2023/12/28 04:42:12;;;;;;;10.52;1.88;;;;;;;9.29;58.56;100712.00;5042393;28;20059;-37
2023/12/28 04:44:38;;;;;;;1.98;1.25;;;;;;;9.38;58.42;100708.88;5044124;28;20032;-37
2023/12/28 04:47:04;;;;;;;4.65;2.00;;;;;;;9.50;58.31;100722.25;5045242;28;20415;-37
2023/12/28 04:49:29;;;;;;;3.47;1.50;;;;;;;9.42;57.97;100714.78;5048702;28;20029;-37
2023/12/28 04:51:55;;;;;;;2.88;1.27;;;;;;;9.52;57.84;100725.66;5047617;28;20021;-37
2023/12/28 04:54:21;;;;;;;3.35;1.15;;;;;;;9.67;57.45;100716.94;5051821;28;20456;-37
2023/12/28 04:56:46;;;;;;;2.20;1.23;;;;;;;9.61;57.94;100719.91;5046811;28;20044;-37
2023/12/28 04:59:12;;;;;;;1.92;1.38;;;;;;;9.38;57.89;100711.50;5048741;28;20131;-37
2023/12/28 05:01:43;;;;;;;5.00;1.70;;;;;;;9.53;58.09;100715.06;5048054;28;20040;-37
2023/12/28 05:04:10;;;;;;;3.58;1.88;;;;;;;9.58;57.68;100730.59;5047737;28;20068;-37
2023/12/28 05:06:35;;;;;;;3.85;1.83;;;;;;;9.59;57.82;100732.28;5046326;28;20407;-37
2023/12/28 05:09:01;;;;;;;3.58;1.55;;;;;;;9.49;58.11;100720.56;5044057;28;20029;-37
2023/12/28 05:11:26;;;;;;;5.43;1.27;;;;;;;9.73;57.96;100732.41;5053333;28;20057;-37
2023/12/28 05:13:52;;;;;;;4.63;1.95;;;;;;;9.60;58.21;100739.25;5045914;28;20052;-37
2023/12/28 05:16:17;;;;;;;3.75;1.63;;;;;;;9.64;57.81;100751.25;5049405;28;20037;-37
2023/12/28 05:18:43;;;;;;;3.25;1.88;;;;;;;9.65;58.21;100750.34;5049301;28;20035;-37
2023/12/28 05:21:08;;;;;;;2.40;1.35;;;;;;;9.76;58.17;100757.66;5046395;28;20053;-37
2023/12/28 05:23:34;;;;;;;3.55;1.67;;;;;;;9.71;58.20;100757.03;5049689;28;20582;-37
2023/12/28 05:25:59;;;;;;;5.72;1.50;;;;;;;9.75;57.90;100759.44;5047982;28;20060;-38
2023/12/28 05:28:24;;;;;;;2.92;1.48;;;;;;;9.63;58.13;100765.34;5049894;28;20036;-37
2023/12/28 05:30:50;;;;;;;3.20;1.77;;;;;;;9.66;58.39;100769.59;5048036;28;20074;-37
2023/12/28 05:33:15;;;;;;;3.13;1.42;;;;;;;9.82;58.11;100764.34;5046407;28;20060;-37
2023/12/28 05:35:40;;;;;;;3.38;1.58;;;;;;;9.74;58.20;100757.75;5049169;28;20040;-36
2023/12/28 05:38:06;;;;;;;4.13;2.45;;;;;;;9.95;57.86;100762.75;5049167;28;20064;-37
2023/12/28 05:40:31;;;;;;;4.82;1.55;;;;;;;9.97;57.74;100774.03;5051447;28;20040;-37
2023/12/28 05:42:56;;;;;;;3.08;1.58;;;;;;;9.86;57.73;100786.91;5048886;28;20402;-37
2023/12/28 05:45:22;;;;;;;3.40;1.30;;;;;;;9.83;58.15;100790.53;5047989;28;20039;-36
2023/12/28 05:47:47;;;;;;;3.60;2.13;;;;;;;9.82;57.98;100793.25;5047052;28;20402;-36
2023/12/28 05:50:13;;;;;;;3.47;1.45;;;;;;;9.94;57.81;100789.97;5047810;28;20053;-36
2023/12/28 05:52:38;;;;;;;3.50;1.73;;;;;;;9.95;57.94;100786.41;5050531;28;20037;-36
2023/12/28 05:55:04;;;;;;;3.33;1.60;;;;;;;9.91;57.67;100800.63;5047466;28;20025;-36
2023/12/28 05:57:31;;;;;;;3.30;1.63;;;;;;;9.88;57.97;100800.81;5046124;28;20036;-36
2023/12/28 05:59:57;;;;;;;2.65;1.20;;;;;;;9.83;57.77;100801.03;5045072;28;20037;-37
2023/12/28 06:02:22;;;;;;;5.10;1.55;;;;;;;9.76;58.33;100791.81;5048965;28;20023;-36
2023/12/28 06:04:48;;;;;;;3.47;1.05;;;;;;;9.97;57.87;100795.06;5047888;28;21287;-36
2023/12/28 06:07:13;;;;;;;4.80;1.50;;;;;;;9.87;57.88;100789.44;5048309;28;20083;-36
2023/12/28 06:09:39;;;;;;;5.03;1.83;;;;;;;9.78;57.89;100789.94;5050583;28;20512;-36
2023/12/28 06:12:05;;;;;;;3.15;1.13;;;;;;;9.87;57.79;100785.97;5047321;28;20399;-36
2023/12/28 06:14:30;;;;;;;2.65;1.33;;;;;;;9.84;57.57;100788.78;5048568;28;20060;-37
2023/12/28 06:16:56;;;;;;;1.38;0.77;;;;;;;9.90;57.66;100793.72;5047863;28;20079;-36
2023/12/28 06:19:22;;;;;;;2.97;1.30;;;;;;;9.86;57.43;100782.50;5047586;28;20110;-36
2023/12/28 06:21:50;;;;;;;5.07;1.25;;;;;;;9.90;57.62;100785.81;5046737;28;20053;-36
2023/12/28 06:24:16;;;;;;;2.90;1.40;;;;;;;9.86;57.50;100786.91;5043799;28;20075;-36
2023/12/28 06:26:42;;;;;;;3.72;1.35;;;;;;;9.83;57.79;100797.59;5047354;28;20475;-36
2023/12/28 06:29:09;;;;;;;4.50;1.85;;;;;;;9.87;57.42;100799.97;5046636;28;20475;-36
2023/12/28 06:31:36;;;;;;;3.28;1.35;;;;;;;9.85;57.74;100803.59;5045326;28;20021;-37
2023/12/28 06:34:05;;;;;;;5.07;1.52;;;;;;;9.90;57.38;100798.97;5044165;28;20068;-36
2023/12/28 06:36:32;;;;;;;7.30;1.67;;;;;;;9.82;57.35;100802.00;5047594;28;20167;-36
2023/12/28 06:38:57;;;;;;;2.00;1.20;;;;;;;9.79;57.83;100804.78;5047110;28;20115;-36
2023/12/28 06:41:25;;;;;;;3.38;1.33;;;;;;;9.89;57.45;100813.88;5048097;28;20199;-36
2023/12/28 06:43:50;;;;;;;3.05;1.40;;;;;;;9.96;57.59;100810.91;5045989;28;20037;-36
2023/12/28 06:46:16;;;;;;;6.13;1.88;;;;;;;9.91;57.85;100806.75;5050238;28;20033;-36
2023/12/28 06:48:43;;;;;;;4.07;1.48;;;;;;;9.86;57.29;100805.31;5046248;28;20036;-36
2023/12/28 06:51:09;;;;;;;8.15;1.60;;;;;;;9.85;57.70;100806.25;5044598;28;20033;-36
2023/12/28 06:53:35;;;;;;;3.97;1.63;;;;;;;9.96;57.66;100809.13;5046703;28;20036;-36
2023/12/28 06:56:00;;;;;;;3.33;1.70;;;;;;;9.92;57.96;100812.84;5045644;28;20403;-36
2023/12/28 06:58:25;;;;;;;2.60;1.50;;;;;;;9.88;57.96;100812.16;5043875;28;20119;-36
2023/12/28 07:00:51;;;;;;;2.80;1.38;;;;;;;9.93;57.87;100819.81;5042730;28;20040;-36
2023/12/28 07:03:16;;;;;;;2.45;1.08;;;;;;;9.89;57.74;100826.19;5046062;28;20150;-36
2023/12/28 07:05:42;;;;;;;3.13;1.67;;;;;;;9.99;57.81;100826.50;5043231;28;20511;-36
2023/12/28 07:08:08;;;;;;;2.80;1.23;;;;;;;9.97;57.58;100825.75;5046310;28;20061;-36
2023/12/28 07:10:34;;;;;;;1.63;1.15;;;;;;;10.01;57.88;100824.66;5046647;28;20025;-36
2023/12/28 07:12:59;;;;;;;3.80;1.35;;;;;;;10.00;57.52;100821.19;5049013;28;20031;-37
2023/12/28 07:15:25;;;;;;;3.45;1.30;;;;;;;10.04;57.73;100822.72;5047168;28;20093;-37
2023/12/28 07:17:50;;;;;;;6.05;1.75;;;;;;;10.00;57.69;100823.81;5047180;28;20028;-37
2023/12/28 07:20:16;;;;;;;3.10;1.70;;;;;;;9.99;57.75;100824.75;5051127;28;20660;-37
2023/12/28 07:22:41;;;;;;;4.45;1.35;;;;;;;10.07;57.53;100848.81;5049115;28;20703;-37
2023/12/28 07:25:06;;;;;;;3.55;1.45;;;;;;;10.11;57.63;100840.78;5048780;28;20040;-36
2023/12/28 07:27:33;;;;;;;3.83;1.02;;;;;;;10.04;58.15;100848.16;5043590;28;20024;-37
2023/12/28 07:29:58;;;;;;;2.47;1.25;;;;;;;10.06;57.97;100843.66;5048396;28;20510;-36
2023/12/28 07:32:25;;;;;;;4.18;1.45;;;;;;;10.10;58.05;100841.69;5048269;28;20036;-37
2023/12/28 07:34:54;;;;;;;2.47;1.05;;;;;;;10.06;57.96;100836.59;5046091;28;20059;-37
2023/12/28 07:37:20;;;;;;;2.25;1.50;;;;;;;10.24;57.71;100849.69;5047764;28;20036;-37
2023/12/28 07:39:46;;;;;;;3.33;1.40;;;;;;;10.28;57.62;100850.41;5048400;28;20037;-37
2023/12/28 07:42:12;;;;;;;4.53;1.50;;;;;;;10.26;57.89;100857.50;5049417;28;20010;-37
2023/12/28 07:44:37;;;;;;;2.35;1.35;;;;;;;10.28;57.85;100861.75;5044769;28;20036;-37
2023/12/28 07:47:02;;;;;;;3.38;1.10;;;;;;;10.32;57.94;100863.28;5051054;28;20039;-37
2023/12/28 07:49:31;;;;;;;5.03;2.28;;;;;;;10.34;57.85;100853.53;5034479;28;20426;-37
2023/12/28 07:51:56;;;;;;;7.85;2.13;;;;;;;10.27;57.69;100857.41;5047211;28;20021;-37
2023/12/28 07:54:22;;;;;;;4.13;2.17;;;;;;;10.42;57.79;100852.28;5048245;28;20454;-36
2023/12/28 07:56:47;;;;;;;2.45;1.50;;;;;;;10.36;57.76;100849.00;5033862;28;20103;-37
2023/12/28 07:59:12;;;;;;;2.35;1.52;;;;;;;10.35;57.83;100857.00;5046560;28;20037;-37
2023/12/28 08:01:38;;;;;;;2.80;1.15;;;;;;;10.50;57.69;100852.72;5046240;28;20115;-37
2023/12/28 08:04:03;;;;;;;3.42;1.90;;;;;;;10.41;58.14;100861.97;5046444;28;20071;-37
2023/12/28 08:06:32;;;;;;;3.50;1.42;;;;;;;10.39;58.49;100858.56;5048894;28;20074;-36
2023/12/28 08:08:59;;;;;;;4.55;1.73;;;;;;;10.48;58.13;100858.03;5045300;28;20029;-37
2023/12/28 08:11:24;;;;;;;2.78;1.38;;;;;;;10.63;57.90;100861.63;5048798;28;20036;-37
2023/12/28 08:13:49;;;;;;;2.05;1.00;;;;;;;10.59;57.95;100860.09;5047687;28;20029;-37
2023/12/28 08:16:15;;;;;;;3.55;0.98;;;;;;;10.44;58.35;100853.03;5048912;28;20599;-36
2023/12/28 08:18:40;;;;;;;1.88;1.40;;;;;;;10.61;58.24;100852.97;5050793;28;20036;-37
2023/12/28 08:21:11;;;;;;;2.38;1.38;;;;;;;10.73;58.08;100868.97;5050200;28;20320;-37
2023/12/28 08:23:36;;;;;;;7.57;1.35;;;;;;;10.56;58.46;100859.41;5041131;28;20037;-36
2023/12/28 08:26:02;;;;;;;3.47;1.40;;;;;;;10.46;58.93;100861.72;5034170;28;20039;-36
2023/12/28 08:28:28;;;;;;;3.00;1.23;;;;;;;10.57;58.89;100861.94;5030008;28;20364;-36
2023/12/28 08:30:56;;;;;;;6.45;1.50;;;;;;;10.63;59.07;100859.00;5027314;28;20029;-36
2023/12/28 08:33:21;;;;;;;2.28;1.00;;;;;;;10.67;58.90;100863.13;5049211;28;20025;-36
2023/12/28 08:35:46;;;;;;;1.55;0.88;;;;;;;10.62;59.16;100867.81;5051495;28;20048;-36
2023/12/28 08:38:12;;;;;;;3.17;1.55;;;;;;;10.52;59.63;100872.75;5048669;28;20052;-36
2023/12/28 08:40:37;;;;;;;4.95;1.40;;;;;;;10.67;59.47;100876.28;5052500;28;20033;-36
2023/12/28 08:43:03;;;;;;;2.47;1.20;;;;;;;10.59;59.79;100891.66;5048178;28;20060;-36
2023/12/28 08:45:28;;;;;;;3.33;1.38;;;;;;;10.65;59.67;100870.28;5047840;28;20032;-36
2023/12/28 08:47:53;;;;;;;3.00;1.20;;;;;;;10.77;59.66;100881.03;5047439;28;20419;-36
2023/12/28 08:50:19;;;;;;;3.00;1.40;;;;;;;10.80;59.51;100878.25;5046806;28;20036;-36
2023/12/28 08:52:45;;;;;;;2.92;1.27;;;;;;;10.76;59.88;100881.97;5048734;28;20040;-36
2023/12/28 08:55:10;;;;;;;4.53;1.70;;;;;;;10.87;59.47;100887.47;5055334;28;20029;-38
2023/12/28 08:57:35;;;;;;;5.72;1.42;;;;;;;10.86;59.61;100891.03;5050444;28;20439;-37
2023/12/28 09:00:02;;;;;;;3.60;1.50;;;;;;;10.76;59.90;100888.06;5050202;28;20028;-38
2023/12/28 09:02:28;;;;;;;4.07;1.55;;;;;;;10.76;59.95;100903.88;5052046;28;20095;-38
2023/12/28 09:04:54;;;;;;;3.05;1.33;;;;;;;10.95;59.76;100897.56;5049466;28;20484;-36
2023/12/28 09:07:19;;;;;;;4.45;1.90;;;;;;;11.03;59.52;100905.91;5049153;28;20028;-37
2023/12/28 09:09:45;;;;;;;5.40;1.48;;;;;;;11.08;59.62;100908.25;5049444;28;20398;-37
2023/12/28 09:12:20;;;;;;;5.28;1.50;;;;;;;11.12;59.28;100905.38;5047314;28;20040;-39
2023/12/28 09:14:45;;;;;;;2.15;1.30;;;;;;;11.20;59.25;100911.97;5051225;28;20535;-37
2023/12/28 09:17:11;;;;;;;2.40;1.13;;;;;;;11.14;59.32;100905.25;5049085;28;20040;-37
2023/12/28 09:19:36;;;;;;;9.70;3.13;;;;;;;11.13;59.43;100908.81;5053179;28;20371;-38
2023/12/28 09:22:02;;;;;;;3.72;1.50;;;;;;;11.24;59.08;100909.09;5054911;28;20436;-36
2023/12/28 09:24:27;;;;;;;2.28;1.33;;;;;;;11.27;59.11;100908.88;5054728;28;20028;-36
2023/12/28 09:26:53;;;;;;;1.40;0.88;;;;;;;11.36;59.02;100911.94;5047763;28;20040;-36
2023/12/28 09:29:18;;;;;;;4.22;1.30;;;;;;;11.29;58.97;100891.19;5047657;28;20441;-36
2023/12/28 09:31:46;;;;;;;4.50;1.73;;;;;;;11.42;58.96;100885.22;5045863;28;20059;-37
2023/12/28 09:34:11;;;;;;;1.45;0.90;;;;;;;11.48;58.64;100876.94;5049549;28;20036;-37
2023/12/28 09:36:37;;;;;;;3.47;1.55;;;;;;;11.31;59.15;100877.09;5048244;28;20059;-37
2023/12/28 09:39:03;;;;;;;3.75;1.55;;;;;;;11.23;59.38;100875.78;5049828;28;20637;-37
2023/12/28 09:41:34;;;;;;;4.25;1.30;;;;;;;11.22;59.25;100884.63;5045967;28;20542;-37
2023/12/28 09:44:12;;;;;;;3.20;1.35;;;;;;;11.22;59.51;100883.75;5048171;28;20029;-37
2023/12/28 09:46:40;;;;;;;5.07;1.50;;;;;;;11.48;58.86;100887.50;5047997;28;20067;-37
2023/12/28 09:49:06;;;;;;;6.45;1.38;;;;;;;11.40;59.09;100885.31;5046710;28;20471;-37
2023/12/28 09:51:32;;;;;;;3.75;1.90;;;;;;;11.23;59.46;100886.31;5049188;28;20024;-37
2023/12/28 09:53:57;;;;;;;3.53;1.48;;;;;;;11.24;59.43;100880.09;5048837;28;20033;-37
2023/12/28 09:56:24;;;;;;;4.18;1.20;;;;;;;11.33;59.31;100859.41;5048849;28;20048;-37
2023/12/28 09:58:51;;;;;;;10.07;1.65;;;;;;;11.33;59.24;100860.28;5047476;28;20110;-37
2023/12/28 10:01:20;;;;;;;5.38;1.63;;;;;;;11.33;59.00;100864.69;5051358;28;20039;-37
2023/12/28 10:03:45;;;;;;;1.85;1.15;;;;;;;11.34;59.00;100871.66;5050635;28;20082;-37
2023/12/28 10:06:10;;;;;;;5.50;2.25;;;;;;;11.30;59.11;100868.34;5048370;28;20024;-37
2023/12/28 10:08:36;;;;;;;3.97;1.33;;;;;;;11.31;58.99;100871.81;5051153;28;20112;-37
2023/12/28 10:11:02;;;;;;;2.63;1.13;;;;;;;11.37;59.16;100866.22;5008270;28;20140;-37
2023/12/28 10:13:28;;;;;;;2.50;1.45;;;;;;;11.37;59.09;100867.03;5042845;28;20035;-37
2023/12/28 10:15:57;;;;;;;2.67;1.38;;;;;;;11.44;58.94;100852.59;5044038;28;20028;-37
2023/12/28 10:18:23;;;;;;;3.38;1.38;;;;;;;11.43;58.87;100855.28;5046686;28;20029;-36
2023/12/28 10:20:53;;;;;;;4.40;1.67;;;;;;;11.51;58.62;100868.00;5046424;28;20048;-37
2023/12/28 10:23:21;;;;;;;3.28;1.60;;;;;;;11.41;58.76;100871.19;5045852;28;20025;-37
2023/12/28 10:25:46;;;;;;;3.97;1.45;;;;;;;11.42;58.71;100861.50;5046369;28;20043;-36
2023/12/28 10:28:15;;;;;;;2.90;1.10;;;;;;;11.48;58.60;100863.78;5042468;28;20025;-37
2023/12/28 10:30:41;;;;;;;7.07;2.33;;;;;;;11.46;58.80;100860.38;5032118;28;20033;-37
2023/12/28 10:33:06;;;;;;;2.47;1.02;;;;;;;11.57;58.42;100860.56;5045295;28;20078;-36
2023/12/28 10:35:32;;;;;;;5.20;1.80;;;;;;;11.58;58.59;100853.53;5048992;28;20037;-37
2023/12/28 10:38:00;;;;;;;3.65;1.23;;;;;;;11.67;58.30;100841.59;5044056;28;20028;-37
2023/12/28 10:40:26;;;;;;;4.22;1.45;;;;;;;11.58;58.45;100864.06;5043489;28;20379;-37
2023/12/28 10:42:57;;;;;;;4.75;1.40;;;;;;;11.59;58.20;100866.59;5043213;28;20024;-37
2023/12/28 10:45:25;;;;;;;4.90;1.60;;;;;;;11.71;58.01;100858.94;5045074;28;20020;-37
2023/12/28 10:48:08;;;;;;;3.17;1.92;;;;;;;11.75;57.79;100852.50;5044070;28;20785;-37
2023/12/28 10:50:37;;;;;;;1.92;1.13;;;;;;;11.69;57.94;100850.25;5044491;28;20063;-37
2023/12/28 10:53:26;;;;;;;6.65;2.40;;;;;;;11.70;57.86;100868.59;5045351;28;20039;-37
2023/12/28 10:56:00;;;;;;;1.73;0.85;;;;;;;11.67;57.98;100852.13;5045099;28;20037;-37
2023/12/28 10:58:38;;;;;;;4.75;1.20;;;;;;;11.71;58.11;100859.75;5047621;28;20503;-37
2023/12/28 11:01:09;;;;;;;5.10;1.70;;;;;;;11.65;58.15;100843.47;5042183;28;20036;-37
2023/12/28 11:03:37;;;;;;;2.22;1.10;;;;;;;11.67;57.98;100842.44;5041036;28;20543;-37
2023/12/28 11:06:05;;;;;;;1.85;1.10;;;;;;;11.83;57.67;100846.75;5031849;28;20159;-37
2023/12/28 11:08:32;;;;;;;3.30;1.50;;;;;;;11.87;57.54;100843.84;5040226;28;20063;-37
2023/12/28 11:11:01;;;;;;;5.32;1.50;;;;;;;11.81;57.43;100852.13;5038868;28;20040;-37
2023/12/28 11:13:30;;;;;;;4.05;1.40;;;;;;;12.05;56.86;100846.31;5040598;28;20124;-37
2023/12/28 11:15:57;;;;;;;2.58;1.08;;;;;;;12.01;57.05;100843.03;5040402;28;20029;-37
2023/12/28 11:18:23;;;;;;;4.53;1.45;;;;;;;12.06;56.81;100844.53;5032691;28;20679;-38
2023/12/28 11:20:50;;;;;;;3.17;1.50;;;;;;;11.88;56.66;100839.44;5042134;28;20028;-37
2023/12/28 11:23:16;;;;;;;4.72;1.73;;;;;;;12.08;56.30;100840.84;5044011;28;20055;-38
2023/12/28 11:25:42;;;;;;;3.67;1.30;;;;;;;12.08;56.69;100840.03;5039225;28;20032;-37